createdAt,value
2023-02-23T00:00:03.805Z,1013.54
2023-02-23T00:01:01.504Z,1013.54
2023-02-23T00:02:01.204Z,1013.53
2023-02-23T00:03:01.495Z,1013.51
2023-02-23T00:04:01.281Z,1013.52
2023-02-23T00:05:01.140Z,1013.54
2023-02-23T00:06:01.154Z,1013.56
2023-02-23T00:07:01.156Z,1013.53
2023-02-23T00:08:01.186Z,1013.56
2023-02-23T00:09:01.062Z,1013.51
2023-02-23T00:10:01.069Z,1013.53
2023-02-23T00:11:01.485Z,1013.47
2023-02-23T00:12:01.079Z,1013.49
2023-02-23T00:13:01.090Z,1013.48
2023-02-23T00:14:01.192Z,1013.5
2023-02-23T00:15:01.122Z,1013.43
2023-02-23T00:16:01.102Z,1013.41
2023-02-23T00:17:01.146Z,1013.45
2023-02-23T00:18:01.095Z,1013.45
2023-02-23T00:19:01.772Z,1013.41
2023-02-23T00:20:01.169Z,1013.4
2023-02-23T00:21:01.839Z,1013.4
2023-02-23T00:22:01.684Z,1013.4
2023-02-23T00:23:01.351Z,1013.43
2023-02-23T00:24:02.709Z,1013.44
2023-02-23T00:25:01.969Z,1013.37
2023-02-23T00:26:02.643Z,1013.37
2023-02-23T00:27:01.085Z,1013.42
2023-02-23T00:28:01.116Z,1013.43
2023-02-23T00:29:01.099Z,1013.45
2023-02-23T00:30:01.223Z,1013.4
2023-02-23T00:31:01.203Z,1013.39
2023-02-23T00:32:02.405Z,1013.37
2023-02-23T00:33:01.126Z,1013.41
2023-02-23T00:34:01.049Z,1013.37
2023-02-23T00:35:01.132Z,1013.32
2023-02-23T00:36:01.131Z,1013.37
2023-02-23T00:37:01.375Z,1013.36
2023-02-23T00:38:01.538Z,1013.38
2023-02-23T00:39:02.250Z,1013.37
2023-02-23T00:40:01.179Z,1013.34
2023-02-23T00:41:01.177Z,1013.32
2023-02-23T00:42:01.189Z,1013.35
2023-02-23T00:43:01.077Z,1013.37
2023-02-23T00:44:01.488Z,1013.36
2023-02-23T00:45:01.107Z,1013.37
2023-02-23T00:46:01.125Z,1013.35
2023-02-23T00:47:02.040Z,1013.39
2023-02-23T00:48:01.154Z,1013.39
2023-02-23T00:49:01.130Z,1013.38
2023-02-23T00:50:01.176Z,1013.41
2023-02-23T00:51:01.165Z,1013.37
2023-02-23T00:52:01.208Z,1013.41
2023-02-23T00:53:01.160Z,1013.34
2023-02-23T00:54:01.161Z,1013.37
2023-02-23T00:55:01.171Z,1013.38
2023-02-23T00:56:01.086Z,1013.37
2023-02-23T00:57:01.320Z,1013.33
2023-02-23T00:58:01.184Z,1013.29
2023-02-23T00:59:01.795Z,1013.34
2023-02-23T01:00:01.911Z,1013.37
2023-02-23T01:01:01.573Z,1013.34
2023-02-23T01:02:02.706Z,1013.35
2023-02-23T01:03:02.174Z,1013.35
2023-02-23T01:04:01.790Z,1013.35
2023-02-23T01:05:01.282Z,1013.32
2023-02-23T01:06:04.893Z,1013.33
2023-02-23T01:07:01.126Z,1013.31
2023-02-23T01:08:01.148Z,1013.3
2023-02-23T01:09:01.465Z,1013.28
2023-02-23T01:10:01.561Z,1013.27
2023-02-23T01:11:08.085Z,1013.26
2023-02-23T01:12:01.181Z,1013.29
2023-02-23T01:13:01.174Z,1013.23
2023-02-23T01:14:01.068Z,1013.23
2023-02-23T01:15:01.078Z,1013.27
2023-02-23T01:16:10.834Z,1013.26
2023-02-23T01:17:01.428Z,1013.29
2023-02-23T01:18:02.117Z,1013.2
2023-02-23T01:19:01.211Z,1013.26
2023-02-23T01:20:01.154Z,1013.25
2023-02-23T01:21:13.838Z,1013.21
2023-02-23T01:22:04.456Z,1013.25
2023-02-23T01:23:01.804Z,1013.24
2023-02-23T01:24:02.380Z,1013.24
2023-02-23T01:25:01.453Z,1013.22
2023-02-23T01:26:16.590Z,1013.17
2023-02-23T01:27:01.153Z,1013.18
2023-02-23T01:28:01.167Z,1013.22
2023-02-23T01:29:01.147Z,1013.22
2023-02-23T01:30:01.063Z,1013.15
2023-02-23T01:31:01.264Z,1013.21
2023-02-23T01:32:03.390Z,1013.13
2023-02-23T01:33:01.414Z,1013.18
2023-02-23T01:34:01.446Z,1013.14
2023-02-23T01:35:01.094Z,1013.15
2023-02-23T01:36:00.789Z,1013.13
2023-02-23T01:37:00.479Z,1013.13
2023-02-23T01:38:00.186Z,1013.09
2023-02-23T01:38:59.876Z,1013.12
2023-02-23T01:39:59.584Z,1013.12
2023-02-23T01:41:01.154Z,1013.07
2023-02-23T01:42:01.152Z,1013.08
2023-02-23T01:43:01.168Z,1013.07
2023-02-23T01:44:01.154Z,1013.12
2023-02-23T01:45:01.183Z,1013.07
2023-02-23T01:46:01.224Z,1013.04
2023-02-23T01:47:01.057Z,1013.03
2023-02-23T01:48:01.460Z,1013.02
2023-02-23T01:49:01.192Z,1013.02
2023-02-23T01:50:01.801Z,1013.02
2023-02-23T01:51:01.095Z,1013.03
2023-02-23T01:52:01.097Z,1013.02
2023-02-23T01:53:01.146Z,1013.04
2023-02-23T01:54:01.114Z,1012.98
2023-02-23T01:55:01.108Z,1013
2023-02-23T01:56:01.149Z,1012.99
2023-02-23T01:57:01.535Z,1012.96
2023-02-23T01:58:01.143Z,1012.97
2023-02-23T01:59:01.136Z,1012.93
2023-02-23T02:00:01.155Z,1012.96
2023-02-23T02:01:01.161Z,1012.96
2023-02-23T02:02:01.054Z,1012.96
2023-02-23T02:03:01.331Z,1012.94
2023-02-23T02:04:01.076Z,1012.95
2023-02-23T02:05:01.144Z,1012.94
2023-02-23T02:06:01.428Z,1012.92
2023-02-23T02:07:01.515Z,1012.89
2023-02-23T02:08:01.122Z,1012.88
2023-02-23T02:09:01.121Z,1012.85
2023-02-23T02:10:01.130Z,1012.82
2023-02-23T02:11:01.165Z,1012.84
2023-02-23T02:12:01.294Z,1012.83
2023-02-23T02:13:01.319Z,1012.81
2023-02-23T02:14:01.657Z,1012.82
2023-02-23T02:15:02.130Z,1012.81
2023-02-23T02:16:01.592Z,1012.8
2023-02-23T02:17:04.020Z,1012.78
2023-02-23T02:18:02.002Z,1012.78
2023-02-23T02:19:01.473Z,1012.79
2023-02-23T02:20:01.458Z,1012.83
2023-02-23T02:21:01.135Z,1012.78
2023-02-23T02:22:01.096Z,1012.75
2023-02-23T02:23:01.094Z,1012.78
2023-02-23T02:24:01.096Z,1012.75
2023-02-23T02:25:01.199Z,1012.71
2023-02-23T02:26:01.446Z,1012.77
2023-02-23T02:27:02.761Z,1012.73
2023-02-23T02:28:03.048Z,1012.75
2023-02-23T02:29:02.051Z,1012.76
2023-02-23T02:30:01.142Z,1012.74
2023-02-23T02:31:01.343Z,1012.76
2023-02-23T02:32:01.486Z,1012.73
2023-02-23T02:33:02.611Z,1012.76
2023-02-23T02:34:01.055Z,1012.76
2023-02-23T02:35:01.062Z,1012.71
2023-02-23T02:36:01.150Z,1012.75
2023-02-23T02:37:03.605Z,1012.75
2023-02-23T02:38:01.082Z,1012.72
2023-02-23T02:39:01.082Z,1012.73
2023-02-23T02:40:02.902Z,1012.79
2023-02-23T02:41:01.240Z,1012.75
2023-02-23T02:42:06.760Z,1012.75
2023-02-23T02:43:02.214Z,1012.77
2023-02-23T02:44:01.744Z,1012.78
2023-02-23T02:45:02.055Z,1012.74
2023-02-23T02:46:01.309Z,1012.76
2023-02-23T02:47:09.392Z,1012.73
2023-02-23T02:48:01.958Z,1012.78
2023-02-23T02:49:02.613Z,1012.74
2023-02-23T02:50:04.786Z,1012.78
2023-02-23T02:51:01.563Z,1012.77
2023-02-23T02:52:12.718Z,1012.77
2023-02-23T02:53:01.748Z,1012.75
2023-02-23T02:54:01.082Z,1012.74
2023-02-23T02:55:01.086Z,1012.75
2023-02-23T02:56:01.108Z,1012.76
2023-02-23T02:57:15.215Z,1012.76
2023-02-23T02:58:02.137Z,1012.75
2023-02-23T02:59:01.977Z,1012.71
2023-02-23T03:00:01.138Z,1012.69
2023-02-23T03:01:01.166Z,1012.69
2023-02-23T03:02:01.172Z,1012.72
2023-02-23T03:03:01.183Z,1012.7
2023-02-23T03:04:01.156Z,1012.64
2023-02-23T03:05:01.215Z,1012.64
2023-02-23T03:06:01.170Z,1012.61
2023-02-23T03:07:01.058Z,1012.56
2023-02-23T03:08:01.456Z,1012.57
2023-02-23T03:09:01.082Z,1012.62
2023-02-23T03:10:01.086Z,1012.55
2023-02-23T03:11:01.110Z,1012.59
2023-02-23T03:12:01.102Z,1012.52
2023-02-23T03:13:01.107Z,1012.51
2023-02-23T03:14:01.931Z,1012.47
2023-02-23T03:15:01.133Z,1012.48
2023-02-23T03:16:01.386Z,1012.49
2023-02-23T03:17:01.343Z,1012.52
2023-02-23T03:18:04.089Z,1012.48
2023-02-23T03:19:01.048Z,1012.49
2023-02-23T03:20:01.148Z,1012.46
2023-02-23T03:21:01.161Z,1012.42
2023-02-23T03:22:01.158Z,1012.41
2023-02-23T03:23:01.071Z,1012.43
2023-02-23T03:24:03.056Z,1012.43
2023-02-23T03:25:01.076Z,1012.45
2023-02-23T03:26:01.093Z,1012.4
2023-02-23T03:27:02.004Z,1012.47
2023-02-23T03:28:01.089Z,1012.41
2023-02-23T03:29:00.593Z,1012.4
2023-02-23T03:30:00.188Z,1012.43
2023-02-23T03:30:59.848Z,1012.38
2023-02-23T03:31:59.804Z,1012.44
2023-02-23T03:33:01.539Z,1012.38
2023-02-23T03:34:02.343Z,1012.37
2023-02-23T03:35:01.163Z,1012.39
2023-02-23T03:36:01.248Z,1012.42
2023-02-23T03:37:01.216Z,1012.45
2023-02-23T03:38:01.158Z,1012.43
2023-02-23T03:39:02.699Z,1012.42
2023-02-23T03:40:04.282Z,1012.41
2023-02-23T03:41:02.217Z,1012.41
2023-02-23T03:42:02.095Z,1012.38
2023-02-23T03:43:01.477Z,1012.43
2023-02-23T03:44:01.100Z,1012.43
2023-02-23T03:45:01.131Z,1012.41
2023-02-23T03:46:01.206Z,1012.42
2023-02-23T03:47:01.120Z,1012.36
2023-02-23T03:48:01.120Z,1012.41
2023-02-23T03:49:01.230Z,1012.38
2023-02-23T03:50:01.726Z,1012.35
2023-02-23T03:51:01.953Z,1012.37
2023-02-23T03:52:01.546Z,1012.37
2023-02-23T03:53:01.258Z,1012.36
2023-02-23T03:54:02.213Z,1012.37
2023-02-23T03:55:01.063Z,1012.33
2023-02-23T03:56:01.092Z,1012.31
2023-02-23T03:57:01.069Z,1012.37
2023-02-23T03:58:01.080Z,1012.35
2023-02-23T03:59:01.378Z,1012.34
2023-02-23T04:00:01.510Z,1012.31
2023-02-23T04:01:02.042Z,1012.35
2023-02-23T04:02:01.226Z,1012.3
2023-02-23T04:03:01.115Z,1012.3
2023-02-23T04:04:01.109Z,1012.36
2023-02-23T04:05:01.255Z,1012.35
2023-02-23T04:06:01.822Z,1012.36
2023-02-23T04:07:01.243Z,1012.35
2023-02-23T04:08:01.251Z,1012.33
2023-02-23T04:09:03.943Z,1012.37
2023-02-23T04:10:02.187Z,1012.36
2023-02-23T04:11:01.071Z,1012.33
2023-02-23T04:12:01.068Z,1012.37
2023-02-23T04:13:01.517Z,1012.34
2023-02-23T04:14:01.084Z,1012.36
2023-02-23T04:15:01.352Z,1012.31
2023-02-23T04:16:01.126Z,1012.33
2023-02-23T04:17:01.073Z,1012.31
2023-02-23T04:18:05.730Z,1012.32
2023-02-23T04:19:01.212Z,1012.32
2023-02-23T04:20:01.518Z,1012.3
2023-02-23T04:21:01.186Z,1012.29
2023-02-23T04:22:01.124Z,1012.27
2023-02-23T04:23:08.189Z,1012.23
2023-02-23T04:24:01.133Z,1012.26
2023-02-23T04:25:01.157Z,1012.19
2023-02-23T04:26:00.867Z,1012.22
2023-02-23T04:27:00.579Z,1012.25
2023-02-23T04:28:09.898Z,1012.19
2023-02-23T04:29:01.895Z,1012.16
2023-02-23T04:30:01.960Z,1012.18
2023-02-23T04:31:01.526Z,1012.15
2023-02-23T04:32:01.138Z,1012.13
2023-02-23T04:33:12.968Z,1012.11
2023-02-23T04:34:02.027Z,1012.17
2023-02-23T04:35:01.132Z,1012.13
2023-02-23T04:36:01.138Z,1012.11
2023-02-23T04:37:01.122Z,1012.14
2023-02-23T04:38:16.581Z,1012.13
2023-02-23T04:39:01.256Z,1012.14
2023-02-23T04:40:01.154Z,1012.11
2023-02-23T04:41:01.172Z,1012.15
2023-02-23T04:42:01.161Z,1012.13
2023-02-23T04:43:01.835Z,1012.11
2023-02-23T04:44:01.803Z,1012.12
2023-02-23T04:45:02.443Z,1012.13
2023-02-23T04:46:01.107Z,1012.09
2023-02-23T04:47:01.442Z,1012.1
2023-02-23T04:48:01.469Z,1012.12
2023-02-23T04:49:01.133Z,1012.13
2023-02-23T04:50:03.884Z,1012.11
2023-02-23T04:51:01.806Z,1012.08
2023-02-23T04:52:01.871Z,1012.07
2023-02-23T04:53:01.822Z,1012.05
2023-02-23T04:54:01.220Z,1012
2023-02-23T04:55:01.518Z,1012.01
2023-02-23T04:56:01.538Z,1011.95
2023-02-23T04:57:01.150Z,1011.94
2023-02-23T04:58:01.154Z,1011.94
2023-02-23T04:59:01.090Z,1011.92
2023-02-23T05:00:01.079Z,1011.88
2023-02-23T05:01:02.466Z,1011.89
2023-02-23T05:02:01.083Z,1011.87
2023-02-23T05:03:01.078Z,1011.84
2023-02-23T05:04:01.484Z,1011.86
2023-02-23T05:05:01.234Z,1011.87
2023-02-23T05:06:01.107Z,1011.9
2023-02-23T05:07:01.220Z,1011.88
2023-02-23T05:08:01.121Z,1011.86
2023-02-23T05:09:01.018Z,1011.86
2023-02-23T05:10:01.163Z,1011.87
2023-02-23T05:11:01.144Z,1011.84
2023-02-23T05:12:01.159Z,1011.84
2023-02-23T05:13:01.970Z,1011.88
2023-02-23T05:14:01.259Z,1011.86
2023-02-23T05:15:01.168Z,1011.89
2023-02-23T05:16:01.899Z,1011.95
2023-02-23T05:17:01.096Z,1011.96
2023-02-23T05:18:01.096Z,1011.97
2023-02-23T05:19:01.120Z,1011.97
2023-02-23T05:20:01.401Z,1011.98
2023-02-23T05:21:01.434Z,1011.92
2023-02-23T05:22:01.115Z,1011.91
2023-02-23T05:23:00.895Z,1011.95
2023-02-23T05:24:01.099Z,1011.94
2023-02-23T05:25:01.591Z,1011.97
2023-02-23T05:26:01.076Z,1011.96
2023-02-23T05:27:01.084Z,1011.97
2023-02-23T05:28:01.859Z,1011.98
2023-02-23T05:29:01.358Z,1012.01
2023-02-23T05:30:02.172Z,1012
2023-02-23T05:31:01.257Z,1012.04
2023-02-23T05:32:02.371Z,1012.04
2023-02-23T05:33:00.681Z,1012.02
2023-02-23T05:34:00.368Z,1012.07
2023-02-23T05:34:59.945Z,1012.05
2023-02-23T05:35:59.889Z,1012.08
2023-02-23T05:37:00.143Z,1012.06
2023-02-23T05:38:00.085Z,1012.07
2023-02-23T05:38:59.885Z,1012.06
2023-02-23T05:39:59.476Z,1012.11
2023-02-23T05:41:01.143Z,1012.09
2023-02-23T05:42:01.706Z,1012.14
2023-02-23T05:43:01.083Z,1012.19
2023-02-23T05:44:01.157Z,1012.2
2023-02-23T05:45:01.073Z,1012.17
2023-02-23T05:46:01.105Z,1012.14
2023-02-23T05:47:01.292Z,1012.18
2023-02-23T05:48:01.363Z,1012.18
2023-02-23T05:49:01.097Z,1012.15
2023-02-23T05:50:01.102Z,1012.2
2023-02-23T05:51:01.092Z,1012.17
2023-02-23T05:52:01.093Z,1012.18
2023-02-23T05:53:01.106Z,1012.24
2023-02-23T05:54:01.097Z,1012.16
2023-02-23T05:55:01.052Z,1012.16
2023-02-23T05:56:01.118Z,1012.18
2023-02-23T05:57:01.928Z,1012.17
2023-02-23T05:58:02.348Z,1012.19
2023-02-23T05:59:01.803Z,1012.24
2023-02-23T06:00:00.995Z,1012.2
2023-02-23T06:01:00.844Z,1012.21
2023-02-23T06:02:01.118Z,1012.23
2023-02-23T06:03:01.128Z,1012.23
2023-02-23T06:04:06.206Z,1012.23
2023-02-23T06:05:01.069Z,1012.23
2023-02-23T06:06:01.402Z,1012.27
2023-02-23T06:07:01.595Z,1012.25
2023-02-23T06:08:02.533Z,1012.22
2023-02-23T06:09:07.626Z,1012.18
2023-02-23T06:10:01.072Z,1012.21
2023-02-23T06:11:01.102Z,1012.21
2023-02-23T06:12:01.134Z,1012.23
2023-02-23T06:13:01.109Z,1012.27
2023-02-23T06:14:09.423Z,1012.21
2023-02-23T06:15:00.709Z,1012.24
2023-02-23T06:16:00.410Z,1012.24
2023-02-23T06:17:00.094Z,1012.18
2023-02-23T06:18:00.035Z,1012.25
2023-02-23T06:19:10.265Z,1012.25
2023-02-23T06:20:01.440Z,1012.23
2023-02-23T06:21:01.984Z,1012.21
2023-02-23T06:22:01.088Z,1012.25
2023-02-23T06:23:01.081Z,1012.24
2023-02-23T06:24:13.978Z,1012.21
2023-02-23T06:25:02.354Z,1012.23
2023-02-23T06:26:01.749Z,1012.23
2023-02-23T06:27:01.769Z,1012.24
2023-02-23T06:28:02.027Z,1012.24
2023-02-23T06:29:16.072Z,1012.24
2023-02-23T06:30:01.121Z,1012.23
2023-02-23T06:31:01.251Z,1012.24
2023-02-23T06:32:01.430Z,1012.27
2023-02-23T06:33:00.934Z,1012.21
2023-02-23T06:34:01.149Z,1012.24
2023-02-23T06:35:00.568Z,1012.23
2023-02-23T06:36:00.153Z,1012.28
2023-02-23T06:36:59.984Z,1012.23
2023-02-23T06:37:59.627Z,1012.28
2023-02-23T06:39:01.393Z,1012.23
2023-02-23T06:40:02.228Z,1012.26
2023-02-23T06:41:01.083Z,1012.27
2023-02-23T06:42:01.089Z,1012.28
2023-02-23T06:43:00.785Z,1012.32
2023-02-23T06:44:00.380Z,1012.29
2023-02-23T06:44:59.971Z,1012.33
2023-02-23T06:45:59.826Z,1012.33
2023-02-23T06:47:01.422Z,1012.34
2023-02-23T06:48:01.676Z,1012.29
2023-02-23T06:49:01.484Z,1012.28
2023-02-23T06:50:00.887Z,1012.3
2023-02-23T06:51:01.149Z,1012.29
2023-02-23T06:52:01.171Z,1012.31
2023-02-23T06:53:01.076Z,1012.33
2023-02-23T06:54:01.067Z,1012.32
2023-02-23T06:55:01.072Z,1012.32
2023-02-23T06:56:01.077Z,1012.27
2023-02-23T06:57:01.099Z,1012.26
2023-02-23T06:58:01.307Z,1012.27
2023-02-23T06:59:01.097Z,1012.28
2023-02-23T07:00:01.528Z,1012.31
2023-02-23T07:01:02.266Z,1012.28
2023-02-23T07:02:01.210Z,1012.33
2023-02-23T07:03:00.848Z,1012.28
2023-02-23T07:04:00.503Z,1012.26
2023-02-23T07:05:00.588Z,1012.29
2023-02-23T07:06:00.207Z,1012.25
2023-02-23T07:06:59.812Z,1012.27
2023-02-23T07:08:01.726Z,1012.26
2023-02-23T07:09:01.488Z,1012.24
2023-02-23T07:10:01.113Z,1012.25
2023-02-23T07:11:01.066Z,1012.24
2023-02-23T07:12:01.101Z,1012.25
2023-02-23T07:13:01.369Z,1012.23
2023-02-23T07:14:01.938Z,1012.19
2023-02-23T07:15:02.499Z,1012.22
2023-02-23T07:16:01.140Z,1012.24
2023-02-23T07:17:01.495Z,1012.27
2023-02-23T07:18:00.994Z,1012.29
2023-02-23T07:19:00.665Z,1012.27
2023-02-23T07:20:00.252Z,1012.28
2023-02-23T07:20:59.887Z,1012.33
2023-02-23T07:21:59.533Z,1012.29
2023-02-23T07:23:01.133Z,1012.34
2023-02-23T07:24:01.187Z,1012.33
2023-02-23T07:25:01.164Z,1012.32
2023-02-23T07:26:01.073Z,1012.3
2023-02-23T07:27:01.085Z,1012.31
2023-02-23T07:28:00.660Z,1012.32
2023-02-23T07:29:00.268Z,1012.37
2023-02-23T07:29:59.851Z,1012.36
2023-02-23T07:31:02.352Z,1012.38
2023-02-23T07:32:01.259Z,1012.37
2023-02-23T07:33:01.409Z,1012.38
2023-02-23T07:34:01.123Z,1012.4
2023-02-23T07:35:01.136Z,1012.41
2023-02-23T07:36:01.123Z,1012.4
2023-02-23T07:37:01.135Z,1012.41
2023-02-23T07:38:01.154Z,1012.41
2023-02-23T07:39:02.715Z,1012.38
2023-02-23T07:40:01.648Z,1012.41
2023-02-23T07:41:01.356Z,1012.41
2023-02-23T07:42:02.596Z,1012.45
2023-02-23T07:43:02.134Z,1012.43
2023-02-23T07:44:01.741Z,1012.43
2023-02-23T07:45:01.076Z,1012.41
2023-02-23T07:46:01.227Z,1012.41
2023-02-23T07:47:01.908Z,1012.38
2023-02-23T07:48:01.704Z,1012.36
2023-02-23T07:49:01.114Z,1012.37
2023-02-23T07:50:04.310Z,1012.38
2023-02-23T07:51:01.122Z,1012.33
2023-02-23T07:52:01.137Z,1012.38
2023-02-23T07:53:00.833Z,1012.34
2023-02-23T07:54:00.513Z,1012.34
2023-02-23T07:55:08.024Z,1012.36
2023-02-23T07:56:01.156Z,1012.33
2023-02-23T07:57:01.158Z,1012.36
2023-02-23T07:58:00.669Z,1012.31
2023-02-23T07:59:00.449Z,1012.29
2023-02-23T08:00:10.137Z,1012.32
2023-02-23T08:01:01.512Z,1012.29
2023-02-23T08:02:01.127Z,1012.31
2023-02-23T08:03:00.821Z,1012.3
2023-02-23T08:04:00.510Z,1012.32
2023-02-23T08:05:13.833Z,1012.32
2023-02-23T08:06:02.083Z,1012.31
2023-02-23T08:07:01.133Z,1012.29
2023-02-23T08:08:00.722Z,1012.28
2023-02-23T08:09:00.622Z,1012.28
2023-02-23T08:10:00.311Z,1012.3
2023-02-23T08:10:59.920Z,1012.28
2023-02-23T08:11:59.503Z,1012.32
2023-02-23T08:13:01.165Z,1012.32
2023-02-23T08:14:02.038Z,1012.29
2023-02-23T08:15:01.074Z,1012.31
2023-02-23T08:16:01.486Z,1012.28
2023-02-23T08:17:01.210Z,1012.24
2023-02-23T08:18:00.698Z,1012.27
2023-02-23T08:19:00.410Z,1012.27
2023-02-23T08:19:59.987Z,1012.23
2023-02-23T08:20:59.602Z,1012.25
2023-02-23T08:22:01.777Z,1012.27
2023-02-23T08:23:01.318Z,1012.23
2023-02-23T08:24:01.144Z,1012.25
2023-02-23T08:25:01.157Z,1012.27
2023-02-23T08:26:01.138Z,1012.29
2023-02-23T08:27:01.152Z,1012.26
2023-02-23T08:28:01.175Z,1012.27
2023-02-23T08:29:01.156Z,1012.32
2023-02-23T08:30:01.193Z,1012.24
2023-02-23T08:31:01.213Z,1012.23
2023-02-23T08:32:01.316Z,1012.24
2023-02-23T08:33:01.188Z,1012.25
2023-02-23T08:34:01.505Z,1012.26
2023-02-23T08:35:01.239Z,1012.25
2023-02-23T08:36:00.997Z,1012.28
2023-02-23T08:37:01.060Z,1012.21
2023-02-23T08:38:00.914Z,1012.22
2023-02-23T08:39:00.537Z,1012.24
2023-02-23T08:40:00.205Z,1012.19
2023-02-23T08:40:59.782Z,1012.18
2023-02-23T08:42:01.798Z,1012.14
2023-02-23T08:43:01.451Z,1012.15
2023-02-23T08:44:02.166Z,1012.13
2023-02-23T08:45:01.152Z,1012.14
2023-02-23T08:46:01.423Z,1012.14
2023-02-23T08:47:01.417Z,1012.13
2023-02-23T08:48:01.067Z,1012.12
2023-02-23T08:49:01.465Z,1012.14
2023-02-23T08:50:01.093Z,1012.15
2023-02-23T08:51:01.137Z,1012.15
2023-02-23T08:52:00.891Z,1012.15
2023-02-23T08:53:00.648Z,1012.16
2023-02-23T08:54:00.286Z,1012.17
2023-02-23T08:54:59.994Z,1012.14
2023-02-23T08:55:59.675Z,1012.14
2023-02-23T08:57:01.314Z,1012.12
2023-02-23T08:58:00.928Z,1012.16
2023-02-23T08:59:00.616Z,1012.17
2023-02-23T09:00:00.331Z,1012.15
2023-02-23T09:01:00.192Z,1012.17
2023-02-23T09:01:59.906Z,1012.16
2023-02-23T09:02:59.711Z,1012.2
2023-02-23T09:04:01.365Z,1012.15
2023-02-23T09:05:02.152Z,1012.17
2023-02-23T09:06:01.088Z,1012.14
2023-02-23T09:07:01.068Z,1012.18
2023-02-23T09:08:00.784Z,1012.19
2023-02-23T09:09:00.365Z,1012.17
2023-02-23T09:10:00.274Z,1012.18
2023-02-23T09:10:59.877Z,1012.13
2023-02-23T09:12:00.143Z,1012.19
2023-02-23T09:12:59.807Z,1012.17
2023-02-23T09:14:01.428Z,1012.13
2023-02-23T09:15:01.072Z,1012.15
2023-02-23T09:16:01.173Z,1012.14
2023-02-23T09:17:01.162Z,1012.12
2023-02-23T09:18:00.837Z,1012.16
2023-02-23T09:19:00.519Z,1012.16
2023-02-23T09:20:00.244Z,1012.17
2023-02-23T09:21:02.583Z,1012.13
2023-02-23T09:22:01.900Z,1012.17
2023-02-23T09:23:01.294Z,1012.14
2023-02-23T09:24:01.085Z,1012.15
2023-02-23T09:25:01.098Z,1012.16
2023-02-23T09:26:05.492Z,1012.19
2023-02-23T09:27:01.122Z,1012.16
2023-02-23T09:28:00.757Z,1012.22
2023-02-23T09:29:00.511Z,1012.21
2023-02-23T09:30:00.241Z,1012.16
2023-02-23T09:31:06.076Z,1012.24
2023-02-23T09:32:01.536Z,1012.22
2023-02-23T09:33:00.725Z,1012.23
2023-02-23T09:34:00.350Z,1012.19
2023-02-23T09:35:00.020Z,1012.17
2023-02-23T09:36:09.983Z,1012.18
2023-02-23T09:37:01.445Z,1012.16
2023-02-23T09:38:00.557Z,1012.19
2023-02-23T09:39:00.559Z,1012.17
2023-02-23T09:40:00.462Z,1012.15
2023-02-23T09:41:11.900Z,1012.12
2023-02-23T09:42:00.628Z,1012.21
2023-02-23T09:43:00.284Z,1012.16
2023-02-23T09:43:59.878Z,1012.19
2023-02-23T09:44:59.746Z,1012.14
2023-02-23T09:46:15.974Z,1012.17
2023-02-23T09:47:01.514Z,1012.23
2023-02-23T09:48:00.626Z,1012.16
2023-02-23T09:49:00.232Z,1012.2
2023-02-23T09:49:59.826Z,1012.25
2023-02-23T09:51:17.455Z,1012.18
2023-02-23T09:52:01.057Z,1012.18
2023-02-23T09:53:01.453Z,1012.19
2023-02-23T09:54:01.756Z,1012.17
2023-02-23T09:55:01.758Z,1012.19
2023-02-23T09:56:01.397Z,1012.2
2023-02-23T09:57:01.456Z,1012.14
2023-02-23T09:58:00.685Z,1012.15
2023-02-23T09:59:00.407Z,1012.12
2023-02-23T10:00:00.727Z,1012.17
2023-02-23T10:01:00.580Z,1012.15
2023-02-23T10:02:00.205Z,1012.17
2023-02-23T10:02:59.927Z,1012.15
2023-02-23T10:03:59.776Z,1012.18
2023-02-23T10:05:01.516Z,1012.15
2023-02-23T10:06:01.332Z,1012.14
2023-02-23T10:07:01.182Z,1012.12
2023-02-23T10:08:00.864Z,1012.12
2023-02-23T10:09:00.703Z,1012.16
2023-02-23T10:10:00.410Z,1012.17
2023-02-23T10:11:00.042Z,1012.16
2023-02-23T10:11:59.753Z,1012.16
2023-02-23T10:13:01.608Z,1012.2
2023-02-23T10:14:02.151Z,1012.15
2023-02-23T10:15:01.193Z,1012.16
2023-02-23T10:16:01.178Z,1012.15
2023-02-23T10:17:01.117Z,1012.17
2023-02-23T10:18:03.138Z,1012.18
2023-02-23T10:19:01.664Z,1012.15
2023-02-23T10:20:01.373Z,1012.16
2023-02-23T10:21:01.379Z,1012.16
2023-02-23T10:22:01.183Z,1012.18
2023-02-23T10:23:00.891Z,1012.11
2023-02-23T10:24:01.096Z,1012.13
2023-02-23T10:25:01.129Z,1012.15
2023-02-23T10:26:01.074Z,1012.13
2023-02-23T10:27:01.141Z,1012.09
2023-02-23T10:28:00.728Z,1012.07
2023-02-23T10:29:00.355Z,1012.08
2023-02-23T10:30:00.220Z,1012.07
2023-02-23T10:31:00.342Z,1012.06
2023-02-23T10:32:00.218Z,1012.11
2023-02-23T10:32:59.992Z,1012.11
2023-02-23T10:33:59.595Z,1012.08
2023-02-23T10:35:01.172Z,1012.08
2023-02-23T10:36:12.918Z,1012.03
2023-02-23T10:37:01.486Z,1012.05
2023-02-23T10:38:00.868Z,1012.05
2023-02-23T10:39:00.576Z,1012.02
2023-02-23T10:40:00.257Z,1012.03
2023-02-23T10:40:59.927Z,1012.01
2023-02-23T10:41:59.535Z,1012.02
2023-02-23T10:43:01.138Z,1012.03
2023-02-23T10:44:15.396Z,1012.01
2023-02-23T10:45:01.100Z,1011.95
2023-02-23T10:46:01.127Z,1012
2023-02-23T10:47:01.110Z,1011.99
2023-02-23T10:48:00.913Z,1012.02
2023-02-23T10:49:01.505Z,1011.96
2023-02-23T10:50:01.121Z,1011.99
2023-02-23T10:51:01.490Z,1012.02
2023-02-23T10:52:01.156Z,1011.97
2023-02-23T10:53:00.866Z,1011.97
2023-02-23T10:54:07.852Z,1011.98
2023-02-23T10:55:01.172Z,1012.04
2023-02-23T10:56:01.063Z,1011.96
2023-02-23T10:57:01.415Z,1011.93
2023-02-23T10:58:01.076Z,1011.92
2023-02-23T10:59:01.092Z,1011.91
2023-02-23T11:00:01.480Z,1011.92
2023-02-23T11:01:01.097Z,1011.89
2023-02-23T11:02:02.832Z,1011.91
2023-02-23T11:03:00.904Z,1011.89
2023-02-23T11:04:10.733Z,1011.9
2023-02-23T11:05:01.231Z,1011.89
2023-02-23T11:06:01.127Z,1011.86
2023-02-23T11:07:01.235Z,1011.84
2023-02-23T11:08:00.836Z,1011.87
2023-02-23T11:09:01.941Z,1011.82
2023-02-23T11:10:01.141Z,1011.84
2023-02-23T11:11:01.484Z,1011.86
2023-02-23T11:12:02.090Z,1011.87
2023-02-23T11:13:01.272Z,1011.85
2023-02-23T11:14:01.486Z,1011.79
2023-02-23T11:15:02.105Z,1011.78
2023-02-23T11:16:01.514Z,1011.78
2023-02-23T11:17:02.638Z,1011.76
2023-02-23T11:18:00.952Z,1011.74
2023-02-23T11:19:01.316Z,1011.76
2023-02-23T11:20:01.047Z,1011.74
2023-02-23T11:21:01.058Z,1011.76
2023-02-23T11:22:04.558Z,1011.75
2023-02-23T11:23:09.600Z,1011.74
2023-02-23T11:24:01.499Z,1011.76
2023-02-23T11:25:01.293Z,1011.69
2023-02-23T11:26:01.302Z,1011.71
2023-02-23T11:27:06.841Z,1011.7
2023-02-23T11:28:01.048Z,1011.74
2023-02-23T11:29:01.069Z,1011.72
2023-02-23T11:30:01.484Z,1011.72
2023-02-23T11:31:01.167Z,1011.68
2023-02-23T11:32:10.743Z,1011.7
2023-02-23T11:33:00.973Z,1011.68
2023-02-23T11:34:01.481Z,1011.61
2023-02-23T11:35:01.206Z,1011.61
2023-02-23T11:36:01.118Z,1011.63
2023-02-23T11:37:12.843Z,1011.58
2023-02-23T11:38:01.426Z,1011.59
2023-02-23T11:39:02.060Z,1011.55
2023-02-23T11:40:02.200Z,1011.51
2023-02-23T11:41:01.153Z,1011.48
2023-02-23T11:42:15.577Z,1011.45
2023-02-23T11:43:01.029Z,1011.5
2023-02-23T11:44:01.540Z,1011.43
2023-02-23T11:45:01.058Z,1011.48
2023-02-23T11:46:01.105Z,1011.45
2023-02-23T11:47:01.124Z,1011.48
2023-02-23T11:48:00.774Z,1011.47
2023-02-23T11:49:00.372Z,1011.44
2023-02-23T11:49:59.970Z,1011.44
2023-02-23T11:50:59.687Z,1011.41
2023-02-23T11:52:01.291Z,1011.39
2023-02-23T11:53:00.878Z,1011.44
2023-02-23T11:54:01.148Z,1011.44
2023-02-23T11:55:01.122Z,1011.44
2023-02-23T11:56:01.130Z,1011.42
2023-02-23T11:57:01.345Z,1011.42
2023-02-23T11:58:00.959Z,1011.37
2023-02-23T11:59:01.579Z,1011.37
2023-02-23T12:00:00.713Z,1011.38
2023-02-23T12:01:00.574Z,1011.32
2023-02-23T12:02:00.352Z,1011.31
2023-02-23T12:03:00.542Z,1011.36
2023-02-23T12:04:00.284Z,1011.38
2023-02-23T12:05:01.411Z,1011.39
2023-02-23T12:06:01.194Z,1011.33
2023-02-23T12:07:01.105Z,1011.32